sensor_id;sensor_type;location;lat;lon;timestamp;temperature;humidity
7341;DHT22;6870;50.944;6.932;2023-09-12T00:02:21;28.40;38.00
7341;DHT22;6870;50.944;6.932;2023-09-12T00:04:49;28.80;38.20
7341;DHT22;6870;50.944;6.932;2023-09-12T00:07:18;28.40;37.90
7341;DHT22;6870;50.944;6.932;2023-09-12T00:09:45;28.30;37.80
7341;DHT22;6870;50.944;6.932;2023-09-12T00:12:15;28.80;38.10
7341;DHT22;6870;50.944;6.932;2023-09-12T00:14:44;28.80;38.10
7341;DHT22;6870;50.944;6.932;2023-09-12T00:17:12;28.50;38.00
7341;DHT22;6870;50.944;6.932;2023-09-12T00:19:42;28.70;38.10
7341;DHT22;6870;50.944;6.932;2023-09-12T00:22:11;28.50;38.00
7341;DHT22;6870;50.944;6.932;2023-09-12T00:24:39;28.70;37.90
7341;DHT22;6870;50.944;6.932;2023-09-12T00:27:07;28.50;37.80
7341;DHT22;6870;50.944;6.932;2023-09-12T00:29:35;28.60;37.90
7341;DHT22;6870;50.944;6.932;2023-09-12T00:32:04;28.30;37.70
7341;DHT22;6870;50.944;6.932;2023-09-12T00:34:32;28.40;37.80
7341;DHT22;6870;50.944;6.932;2023-09-12T00:37:01;28.70;38.00
7341;DHT22;6870;50.944;6.932;2023-09-12T00:39:30;28.70;38.10
7341;DHT22;6870;50.944;6.932;2023-09-12T00:41:58;28.60;38.00
7341;DHT22;6870;50.944;6.932;2023-09-12T00:44:26;28.60;38.00
7341;DHT22;6870;50.944;6.932;2023-09-12T00:46:54;28.60;38.00
7341;DHT22;6870;50.944;6.932;2023-09-12T00:49:25;28.80;38.10
7341;DHT22;6870;50.944;6.932;2023-09-12T00:51:53;28.70;37.90
7341;DHT22;6870;50.944;6.932;2023-09-12T00:54:24;28.50;37.80
7341;DHT22;6870;50.944;6.932;2023-09-12T00:56:52;28.50;37.60
7341;DHT22;6870;50.944;6.932;2023-09-12T00:59:20;28.20;37.50
7341;DHT22;6870;50.944;6.932;2023-09-12T01:01:48;28.60;37.70
7341;DHT22;6870;50.944;6.932;2023-09-12T01:04:18;28.50;37.70
7341;DHT22;6870;50.944;6.932;2023-09-12T01:07:02;28.60;37.70
7341;DHT22;6870;50.944;6.932;2023-09-12T01:09:32;28.60;37.70
7341;DHT22;6870;50.944;6.932;2023-09-12T01:12:01;28.70;37.80
7341;DHT22;6870;50.944;6.932;2023-09-12T01:14:30;28.60;38.50
7341;DHT22;6870;50.944;6.932;2023-09-12T01:16:58;28.60;37.70
7341;DHT22;6870;50.944;6.932;2023-09-12T01:19:27;28.50;37.60
7341;DHT22;6870;50.944;6.932;2023-09-12T01:22:27;28.80;37.80
7341;DHT22;6870;50.944;6.932;2023-09-12T01:25:57;28.80;37.80
7341;DHT22;6870;50.944;6.932;2023-09-12T01:28:34;28.80;37.80
7341;DHT22;6870;50.944;6.932;2023-09-12T01:31:02;28.80;37.80
7341;DHT22;6870;50.944;6.932;2023-09-12T01:33:31;28.80;37.70
7341;DHT22;6870;50.944;6.932;2023-09-12T01:35:59;28.50;37.60
7341;DHT22;6870;50.944;6.932;2023-09-12T01:38:27;28.70;37.70
7341;DHT22;6870;50.944;6.932;2023-09-12T01:40:56;28.40;37.40
7341;DHT22;6870;50.944;6.932;2023-09-12T01:43:25;28.10;37.20
7341;DHT22;6870;50.944;6.932;2023-09-12T01:45:57;28.40;37.50
7341;DHT22;6870;50.944;6.932;2023-09-12T01:48:30;28.40;37.40
7341;DHT22;6870;50.944;6.932;2023-09-12T01:51:01;28.50;37.50
7341;DHT22;6870;50.944;6.932;2023-09-12T01:53:29;28.30;37.40
7341;DHT22;6870;50.944;6.932;2023-09-12T01:56:00;28.40;37.40
7341;DHT22;6870;50.944;6.932;2023-09-12T01:58:28;28.40;37.40
7341;DHT22;6870;50.944;6.932;2023-09-12T02:00:58;28.50;37.60
7341;DHT22;6870;50.944;6.932;2023-09-12T02:03:26;28.70;37.60
7341;DHT22;6870;50.944;6.932;2023-09-12T02:05:54;28.70;37.60
7341;DHT22;6870;50.944;6.932;2023-09-12T02:08:23;28.80;37.70
7341;DHT22;6870;50.944;6.932;2023-09-12T02:10:51;28.30;37.30
7341;DHT22;6870;50.944;6.932;2023-09-12T02:13:19;28.70;37.60
7341;DHT22;6870;50.944;6.932;2023-09-12T02:15:47;28.80;37.60
7341;DHT22;6870;50.944;6.932;2023-09-12T02:18:17;28.80;37.50
7341;DHT22;6870;50.944;6.932;2023-09-12T02:20:45;28.50;37.40
7341;DHT22;6870;50.944;6.932;2023-09-12T02:23:15;28.30;37.20
7341;DHT22;6870;50.944;6.932;2023-09-12T02:25:43;28.70;37.50
7341;DHT22;6870;50.944;6.932;2023-09-12T02:28:11;28.70;37.50
7341;DHT22;6870;50.944;6.932;2023-09-12T02:30:39;28.60;37.50
7341;DHT22;6870;50.944;6.932;2023-09-12T02:33:08;28.40;37.40
7341;DHT22;6870;50.944;6.932;2023-09-12T02:35:37;28.60;37.50
7341;DHT22;6870;50.944;6.932;2023-09-12T02:38:05;28.80;37.60
7341;DHT22;6870;50.944;6.932;2023-09-12T02:40:33;28.60;37.50
7341;DHT22;6870;50.944;6.932;2023-09-12T02:43:02;28.40;38.10
7341;DHT22;6870;50.944;6.932;2023-09-12T02:45:30;28.50;37.50
7341;DHT22;6870;50.944;6.932;2023-09-12T02:47:58;28.40;37.50
7341;DHT22;6870;50.944;6.932;2023-09-12T02:50:26;28.70;37.60
7341;DHT22;6870;50.944;6.932;2023-09-12T02:52:55;28.50;37.60
7341;DHT22;6870;50.944;6.932;2023-09-12T02:55:23;28.60;37.60
7341;DHT22;6870;50.944;6.932;2023-09-12T02:57:51;28.40;37.50
7341;DHT22;6870;50.944;6.932;2023-09-12T03:00:20;28.50;37.60
7341;DHT22;6870;50.944;6.932;2023-09-12T03:02:48;28.40;37.40
7341;DHT22;6870;50.944;6.932;2023-09-12T03:05:16;28.40;38.30
7341;DHT22;6870;50.944;6.932;2023-09-12T03:07:44;28.60;37.60
7341;DHT22;6870;50.944;6.932;2023-09-12T03:10:13;28.40;37.50
7341;DHT22;6870;50.944;6.932;2023-09-12T03:12:42;28.30;37.40
7341;DHT22;6870;50.944;6.932;2023-09-12T03:15:10;28.30;37.40
7341;DHT22;6870;50.944;6.932;2023-09-12T03:17:39;28.30;37.50
7341;DHT22;6870;50.944;6.932;2023-09-12T03:20:07;28.20;37.40
7341;DHT22;6870;50.944;6.932;2023-09-12T03:22:36;28.10;38.00
7341;DHT22;6870;50.944;6.932;2023-09-12T03:25:05;28.60;37.70
7341;DHT22;6870;50.944;6.932;2023-09-12T03:27:35;28.50;37.70
7341;DHT22;6870;50.944;6.932;2023-09-12T03:30:04;28.40;37.60
7341;DHT22;6870;50.944;6.932;2023-09-12T03:32:33;28.50;37.70
7341;DHT22;6870;50.944;6.932;2023-09-12T03:35:01;28.40;37.60
7341;DHT22;6870;50.944;6.932;2023-09-12T03:37:29;28.40;37.60
7341;DHT22;6870;50.944;6.932;2023-09-12T03:39:57;28.40;37.70
7341;DHT22;6870;50.944;6.932;2023-09-12T03:42:25;28.30;37.60
7341;DHT22;6870;50.944;6.932;2023-09-12T03:45:02;28.70;37.90
7341;DHT22;6870;50.944;6.932;2023-09-12T03:47:30;28.40;37.70
7341;DHT22;6870;50.944;6.932;2023-09-12T03:49:58;28.40;37.70
7341;DHT22;6870;50.944;6.932;2023-09-12T03:52:26;28.20;37.50
7341;DHT22;6870;50.944;6.932;2023-09-12T03:54:54;28.40;37.70
7341;DHT22;6870;50.944;6.932;2023-09-12T03:57:22;28.20;37.50
7341;DHT22;6870;50.944;6.932;2023-09-12T03:59:52;28.40;37.70
7341;DHT22;6870;50.944;6.932;2023-09-12T04:02:21;28.50;37.80
7341;DHT22;6870;50.944;6.932;2023-09-12T04:04:49;28.30;37.70
7341;DHT22;6870;50.944;6.932;2023-09-12T04:07:18;28.30;37.60
7341;DHT22;6870;50.944;6.932;2023-09-12T04:09:46;28.20;37.50
7341;DHT22;6870;50.944;6.932;2023-09-12T04:12:14;28.60;37.90
7341;DHT22;6870;50.944;6.932;2023-09-12T04:14:42;28.10;37.60
7341;DHT22;6870;50.944;6.932;2023-09-12T04:17:10;28.30;37.70
7341;DHT22;6870;50.944;6.932;2023-09-12T04:19:40;28.60;37.90
7341;DHT22;6870;50.944;6.932;2023-09-12T04:22:08;28.50;37.80
7341;DHT22;6870;50.944;6.932;2023-09-12T04:24:36;28.50;37.80
7341;DHT22;6870;50.944;6.932;2023-09-12T04:27:04;28.30;37.70
7341;DHT22;6870;50.944;6.932;2023-09-12T04:29:33;28.20;37.70
7341;DHT22;6870;50.944;6.932;2023-09-12T04:32:02;28.60;38.00
7341;DHT22;6870;50.944;6.932;2023-09-12T04:34:30;28.00;37.70
7341;DHT22;6870;50.944;6.932;2023-09-12T04:37:00;28.20;37.70
7341;DHT22;6870;50.944;6.932;2023-09-12T04:39:29;28.70;38.20
7341;DHT22;6870;50.944;6.932;2023-09-12T04:41:57;28.60;38.10
7341;DHT22;6870;50.944;6.932;2023-09-12T04:44:25;28.00;37.60
7341;DHT22;6870;50.944;6.932;2023-09-12T04:46:53;28.40;37.90
7341;DHT22;6870;50.944;6.932;2023-09-12T04:49:21;28.50;38.00
7341;DHT22;6870;50.944;6.932;2023-09-12T04:51:49;28.50;38.10
7341;DHT22;6870;50.944;6.932;2023-09-12T04:54:18;28.00;37.70
7341;DHT22;6870;50.944;6.932;2023-09-12T04:56:46;28.40;37.90
7341;DHT22;6870;50.944;6.932;2023-09-12T04:59:14;28.50;38.00
7341;DHT22;6870;50.944;6.932;2023-09-12T05:01:43;28.20;37.70
7341;DHT22;6870;50.944;6.932;2023-09-12T05:04:11;28.10;37.80
7341;DHT22;6870;50.944;6.932;2023-09-12T05:06:39;28.20;37.80
7341;DHT22;6870;50.944;6.932;2023-09-12T05:09:07;28.30;37.90
7341;DHT22;6870;50.944;6.932;2023-09-12T05:11:39;28.50;38.00
7341;DHT22;6870;50.944;6.932;2023-09-12T05:14:06;28.50;38.10
7341;DHT22;6870;50.944;6.932;2023-09-12T05:16:34;28.30;38.00
7341;DHT22;6870;50.944;6.932;2023-09-12T05:19:03;28.50;38.10
7341;DHT22;6870;50.944;6.932;2023-09-12T05:21:31;28.20;37.90
7341;DHT22;6870;50.944;6.932;2023-09-12T05:23:59;28.20;37.90
7341;DHT22;6870;50.944;6.932;2023-09-12T05:26:27;28.50;38.10
7341;DHT22;6870;50.944;6.932;2023-09-12T05:28:56;28.00;37.80
7341;DHT22;6870;50.944;6.932;2023-09-12T05:31:24;28.10;37.80
7341;DHT22;6870;50.944;6.932;2023-09-12T05:33:52;27.90;37.70
7341;DHT22;6870;50.944;6.932;2023-09-12T05:36:20;28.10;37.90
7341;DHT22;6870;50.944;6.932;2023-09-12T05:38:48;28.40;38.00
7341;DHT22;6870;50.944;6.932;2023-09-12T05:41:16;27.90;37.80
7341;DHT22;6870;50.944;6.932;2023-09-12T05:43:44;28.20;37.90
7341;DHT22;6870;50.944;6.932;2023-09-12T05:46:14;28.50;38.00
7341;DHT22;6870;50.944;6.932;2023-09-12T05:48:42;28.10;37.80
7341;DHT22;6870;50.944;6.932;2023-09-12T05:51:10;28.00;37.70
7341;DHT22;6870;50.944;6.932;2023-09-12T05:53:38;28.30;38.00
7341;DHT22;6870;50.944;6.932;2023-09-12T05:56:07;28.50;38.10
7341;DHT22;6870;50.944;6.932;2023-09-12T05:58:35;28.40;37.90
7341;DHT22;6870;50.944;6.932;2023-09-12T06:01:08;28.60;37.90
7341;DHT22;6870;50.944;6.932;2023-09-12T06:03:38;28.00;37.40
7341;DHT22;6870;50.944;6.932;2023-09-12T06:06:06;28.50;37.80
7341;DHT22;6870;50.944;6.932;2023-09-12T06:08:34;28.20;37.60
7341;DHT22;6870;50.944;6.932;2023-09-12T06:11:02;28.20;37.60
7341;DHT22;6870;50.944;6.932;2023-09-12T06:13:31;28.20;37.60
7341;DHT22;6870;50.944;6.932;2023-09-12T06:15:59;28.20;37.60
7341;DHT22;6870;50.944;6.932;2023-09-12T06:18:27;28.30;37.70
7341;DHT22;6870;50.944;6.932;2023-09-12T06:20:59;28.00;37.60
7341;DHT22;6870;50.944;6.932;2023-09-12T06:23:28;28.20;37.70
7341;DHT22;6870;50.944;6.932;2023-09-12T06:25:56;28.10;37.70
7341;DHT22;6870;50.944;6.932;2023-09-12T06:28:25;28.50;37.80
7341;DHT22;6870;50.944;6.932;2023-09-12T06:30:54;28.40;37.80
7341;DHT22;6870;50.944;6.932;2023-09-12T06:33:24;28.00;37.50
7341;DHT22;6870;50.944;6.932;2023-09-12T06:35:52;28.00;37.50
7341;DHT22;6870;50.944;6.932;2023-09-12T06:38:22;28.40;37.90
7341;DHT22;6870;50.944;6.932;2023-09-12T06:40:50;28.30;37.90
7341;DHT22;6870;50.944;6.932;2023-09-12T06:43:19;28.10;37.80
7341;DHT22;6870;50.944;6.932;2023-09-12T06:45:47;28.10;37.90
7341;DHT22;6870;50.944;6.932;2023-09-12T06:48:15;28.30;38.10
7341;DHT22;6870;50.944;6.932;2023-09-12T06:50:44;28.50;38.40
7341;DHT22;6870;50.944;6.932;2023-09-12T06:53:17;28.20;38.30
7341;DHT22;6870;50.944;6.932;2023-09-12T06:55:46;28.00;38.30
7341;DHT22;6870;50.944;6.932;2023-09-12T06:58:14;28.10;38.40
7341;DHT22;6870;50.944;6.932;2023-09-12T07:00:42;28.40;38.70
7341;DHT22;6870;50.944;6.932;2023-09-12T07:03:11;28.10;38.50
7341;DHT22;6870;50.944;6.932;2023-09-12T07:05:43;28.30;38.60
7341;DHT22;6870;50.944;6.932;2023-09-12T07:08:11;27.90;38.50
7341;DHT22;6870;50.944;6.932;2023-09-12T07:10:45;28.00;38.60
7341;DHT22;6870;50.944;6.932;2023-09-12T07:13:13;28.20;38.70
7341;DHT22;6870;50.944;6.932;2023-09-12T07:15:41;28.40;38.90
7341;DHT22;6870;50.944;6.932;2023-09-12T07:18:09;28.40;39.00
7341;DHT22;6870;50.944;6.932;2023-09-12T07:20:37;28.50;38.90
7341;DHT22;6870;50.944;6.932;2023-09-12T07:23:05;28.00;38.40
7341;DHT22;6870;50.944;6.932;2023-09-12T07:25:39;28.20;38.50
7341;DHT22;6870;50.944;6.932;2023-09-12T07:28:09;28.40;38.80
7341;DHT22;6870;50.944;6.932;2023-09-12T07:30:37;28.50;38.70
7341;DHT22;6870;50.944;6.932;2023-09-12T07:33:06;27.90;38.30
7341;DHT22;6870;50.944;6.932;2023-09-12T07:35:34;28.00;38.40
7341;DHT22;6870;50.944;6.932;2023-09-12T07:38:02;28.30;38.90
7341;DHT22;6870;50.944;6.932;2023-09-12T07:40:30;27.90;38.40
7341;DHT22;6870;50.944;6.932;2023-09-12T07:42:58;28.40;38.70
7341;DHT22;6870;50.944;6.932;2023-09-12T07:45:28;28.00;38.60
7341;DHT22;6870;50.944;6.932;2023-09-12T07:47:56;28.10;38.40
7341;DHT22;6870;50.944;6.932;2023-09-12T07:50:24;28.20;38.40
7341;DHT22;6870;50.944;6.932;2023-09-12T07:52:52;28.50;38.80
7341;DHT22;6870;50.944;6.932;2023-09-12T07:55:23;27.90;38.20
7341;DHT22;6870;50.944;6.932;2023-09-12T07:57:51;28.10;38.40
7341;DHT22;6870;50.944;6.932;2023-09-12T08:00:19;28.00;38.30
7341;DHT22;6870;50.944;6.932;2023-09-12T08:02:49;28.00;38.20
7341;DHT22;6870;50.944;6.932;2023-09-12T08:05:17;28.30;38.50
7341;DHT22;6870;50.944;6.932;2023-09-12T08:07:46;28.10;38.30
7341;DHT22;6870;50.944;6.932;2023-09-12T08:10:14;28.00;38.20
7341;DHT22;6870;50.944;6.932;2023-09-12T08:12:42;28.00;38.10
7341;DHT22;6870;50.944;6.932;2023-09-12T08:15:10;28.10;38.20
7341;DHT22;6870;50.944;6.932;2023-09-12T08:17:38;27.90;38.00
7341;DHT22;6870;50.944;6.932;2023-09-12T08:20:09;28.50;38.40
7341;DHT22;6870;50.944;6.932;2023-09-12T08:22:37;28.30;38.30
7341;DHT22;6870;50.944;6.932;2023-09-12T08:25:06;27.80;37.70
7341;DHT22;6870;50.944;6.932;2023-09-12T08:27:34;28.00;38.00
7341;DHT22;6870;50.944;6.932;2023-09-12T08:30:03;28.40;38.20
7341;DHT22;6870;50.944;6.932;2023-09-12T08:32:31;28.40;38.20
7341;DHT22;6870;50.944;6.932;2023-09-12T08:34:59;28.10;38.00
7341;DHT22;6870;50.944;6.932;2023-09-12T08:37:29;28.50;38.20
7341;DHT22;6870;50.944;6.932;2023-09-12T08:39:57;28.00;37.80
7341;DHT22;6870;50.944;6.932;2023-09-12T08:42:26;28.10;37.90
7341;DHT22;6870;50.944;6.932;2023-09-12T08:44:55;28.50;38.20
7341;DHT22;6870;50.944;6.932;2023-09-12T08:47:25;27.90;37.80
7341;DHT22;6870;50.944;6.932;2023-09-12T08:49:54;28.20;37.80
7341;DHT22;6870;50.944;6.932;2023-09-12T08:52:23;28.50;38.20
7341;DHT22;6870;50.944;6.932;2023-09-12T08:54:52;28.40;38.00
7341;DHT22;6870;50.944;6.932;2023-09-12T08:57:20;28.50;38.10
7341;DHT22;6870;50.944;6.932;2023-09-12T08:59:50;27.90;37.70
7341;DHT22;6870;50.944;6.932;2023-09-12T09:02:18;28.00;37.70
7341;DHT22;6870;50.944;6.932;2023-09-12T09:04:47;28.20;37.70
7341;DHT22;6870;50.944;6.932;2023-09-12T09:07:19;28.30;37.80
7341;DHT22;6870;50.944;6.932;2023-09-12T09:09:49;28.30;37.70
7341;DHT22;6870;50.944;6.932;2023-09-12T09:12:20;28.50;37.90
7341;DHT22;6870;50.944;6.932;2023-09-12T09:14:48;28.50;37.80
7341;DHT22;6870;50.944;6.932;2023-09-12T09:17:16;28.10;37.60
7341;DHT22;6870;50.944;6.932;2023-09-12T09:20:00;28.10;37.50
7341;DHT22;6870;50.944;6.932;2023-09-12T09:22:28;28.60;37.80
7341;DHT22;6870;50.944;6.932;2023-09-12T09:25:10;28.10;37.50
7341;DHT22;6870;50.944;6.932;2023-09-12T09:27:41;28.20;37.50
7341;DHT22;6870;50.944;6.932;2023-09-12T09:30:10;28.50;37.70
7341;DHT22;6870;50.944;6.932;2023-09-12T09:32:38;28.70;37.80
7341;DHT22;6870;50.944;6.932;2023-09-12T09:35:09;28.00;37.30
7341;DHT22;6870;50.944;6.932;2023-09-12T09:37:38;28.40;37.60
7341;DHT22;6870;50.944;6.932;2023-09-12T09:40:07;28.10;37.40
7341;DHT22;6870;50.944;6.932;2023-09-12T09:42:37;28.20;37.30
7341;DHT22;6870;50.944;6.932;2023-09-12T09:45:07;28.50;37.70
7341;DHT22;6870;50.944;6.932;2023-09-12T09:47:36;28.50;37.70
7341;DHT22;6870;50.944;6.932;2023-09-12T09:50:05;28.10;37.40
7341;DHT22;6870;50.944;6.932;2023-09-12T09:52:33;28.00;37.20
7341;DHT22;6870;50.944;6.932;2023-09-12T09:55:01;28.30;37.40
7341;DHT22;6870;50.944;6.932;2023-09-12T09:57:36;28.20;37.30
7341;DHT22;6870;50.944;6.932;2023-09-12T10:00:07;28.50;37.70
7341;DHT22;6870;50.944;6.932;2023-09-12T10:02:42;28.10;37.40
7341;DHT22;6870;50.944;6.932;2023-09-12T10:05:12;28.20;37.30
7341;DHT22;6870;50.944;6.932;2023-09-12T10:07:41;28.10;37.10
7341;DHT22;6870;50.944;6.932;2023-09-12T10:10:10;28.60;37.50
7341;DHT22;6870;50.944;6.932;2023-09-12T10:12:46;28.40;37.30
7341;DHT22;6870;50.944;6.932;2023-09-12T10:15:19;28.10;37.00
7341;DHT22;6870;50.944;6.932;2023-09-12T10:17:56;28.30;37.20
7341;DHT22;6870;50.944;6.932;2023-09-12T10:20:29;28.70;37.40
7341;DHT22;6870;50.944;6.932;2023-09-12T10:23:06;28.10;37.00
7341;DHT22;6870;50.944;6.932;2023-09-12T10:25:38;28.10;37.00
7341;DHT22;6870;50.944;6.932;2023-09-12T10:28:07;28.50;37.20
7341;DHT22;6870;50.944;6.932;2023-09-12T10:30:37;28.10;36.90
7341;DHT22;6870;50.944;6.932;2023-09-12T10:33:05;28.20;36.80
7341;DHT22;6870;50.944;6.932;2023-09-12T10:35:35;28.60;37.00
7341;DHT22;6870;50.944;6.932;2023-09-12T10:38:05;28.40;36.90
7341;DHT22;6870;50.944;6.932;2023-09-12T10:40:36;28.80;37.00
7341;DHT22;6870;50.944;6.932;2023-09-12T10:43:10;28.70;37.80
7341;DHT22;6870;50.944;6.932;2023-09-12T10:45:41;28.70;37.00
7341;DHT22;6870;50.944;6.932;2023-09-12T10:48:10;28.70;36.90
7341;DHT22;6870;50.944;6.932;2023-09-12T10:50:39;28.70;37.00
7341;DHT22;6870;50.944;6.932;2023-09-12T10:53:11;28.60;37.00
7341;DHT22;6870;50.944;6.932;2023-09-12T10:55:40;28.70;37.00
7341;DHT22;6870;50.944;6.932;2023-09-12T10:58:09;28.90;37.20
7341;DHT22;6870;50.944;6.932;2023-09-12T11:00:38;28.70;37.00
7341;DHT22;6870;50.944;6.932;2023-09-12T11:03:38;28.70;37.00
7341;DHT22;6870;50.944;6.932;2023-09-12T11:06:20;28.60;36.90
7341;DHT22;6870;50.944;6.932;2023-09-12T11:09:15;28.50;36.80
7341;DHT22;6870;50.944;6.932;2023-09-12T11:11:46;28.80;36.90
7341;DHT22;6870;50.944;6.932;2023-09-12T11:14:15;28.30;36.50
7341;DHT22;6870;50.944;6.932;2023-09-12T11:17:22;28.70;36.80
7341;DHT22;6870;50.944;6.932;2023-09-12T11:19:53;28.60;36.70
7341;DHT22;6870;50.944;6.932;2023-09-12T11:22:23;28.70;36.70
7341;DHT22;6870;50.944;6.932;2023-09-12T11:24:53;28.40;36.50
7341;DHT22;6870;50.944;6.932;2023-09-12T11:27:24;28.30;36.30
7341;DHT22;6870;50.944;6.932;2023-09-12T11:30:03;28.80;36.70
7341;DHT22;6870;50.944;6.932;2023-09-12T11:32:35;28.70;36.50
7341;DHT22;6870;50.944;6.932;2023-09-12T11:35:07;28.90;36.70
7341;DHT22;6870;50.944;6.932;2023-09-12T11:37:35;28.80;36.50
7341;DHT22;6870;50.944;6.932;2023-09-12T11:40:16;28.90;36.50
7341;DHT22;6870;50.944;6.932;2023-09-12T11:42:45;28.50;36.20
7341;DHT22;6870;50.944;6.932;2023-09-12T11:45:18;29.00;36.60
7341;DHT22;6870;50.944;6.932;2023-09-12T11:47:48;28.70;36.30
7341;DHT22;6870;50.944;6.932;2023-09-12T11:50:28;28.40;36.00
7341;DHT22;6870;50.944;6.932;2023-09-12T11:53:01;28.60;36.10
7341;DHT22;6870;50.944;6.932;2023-09-12T11:55:32;28.80;36.30
7341;DHT22;6870;50.944;6.932;2023-09-12T11:58:01;28.90;36.20
7341;DHT22;6870;50.944;6.932;2023-09-12T12:00:30;28.90;36.20
7341;DHT22;6870;50.944;6.932;2023-09-12T12:02:58;29.00;36.30
7341;DHT22;6870;50.944;6.932;2023-09-12T12:05:28;29.00;36.20
7341;DHT22;6870;50.944;6.932;2023-09-12T12:07:58;29.00;36.20
7341;DHT22;6870;50.944;6.932;2023-09-12T12:10:49;29.00;36.30
7341;DHT22;6870;50.944;6.932;2023-09-12T12:13:18;28.80;36.00
7341;DHT22;6870;50.944;6.932;2023-09-12T12:15:46;28.70;36.00
7341;DHT22;6870;50.944;6.932;2023-09-12T12:18:15;29.00;36.20
7341;DHT22;6870;50.944;6.932;2023-09-12T12:20:45;28.90;36.10
7341;DHT22;6870;50.944;6.932;2023-09-12T12:23:13;29.00;36.10
7341;DHT22;6870;50.944;6.932;2023-09-12T12:25:41;28.90;36.00
7341;DHT22;6870;50.944;6.932;2023-09-12T12:28:09;28.90;36.00
7341;DHT22;6870;50.944;6.932;2023-09-12T12:30:38;28.90;36.70
7341;DHT22;6870;50.944;6.932;2023-09-12T12:33:08;28.70;35.80
7341;DHT22;6870;50.944;6.932;2023-09-12T12:36:02;28.80;35.90
7341;DHT22;6870;50.944;6.932;2023-09-12T12:38:33;28.60;35.60
7341;DHT22;6870;50.944;6.932;2023-09-12T12:41:06;28.90;35.80
7341;DHT22;6870;50.944;6.932;2023-09-12T12:43:34;28.80;35.80
7341;DHT22;6870;50.944;6.932;2023-09-12T12:46:03;29.10;36.00
7341;DHT22;6870;50.944;6.932;2023-09-12T12:48:32;29.00;36.00
7341;DHT22;6870;50.944;6.932;2023-09-12T12:51:14;28.50;35.60
7341;DHT22;6870;50.944;6.932;2023-09-12T12:53:46;29.10;36.00
7341;DHT22;6870;50.944;6.932;2023-09-12T12:56:21;28.90;36.00
7341;DHT22;6870;50.944;6.932;2023-09-12T12:58:51;28.60;35.70
7341;DHT22;6870;50.944;6.932;2023-09-12T13:01:21;29.00;36.10
7341;DHT22;6870;50.944;6.932;2023-09-12T13:03:49;29.10;36.20
7341;DHT22;6870;50.944;6.932;2023-09-12T13:06:19;29.00;36.00
7341;DHT22;6870;50.944;6.932;2023-09-12T13:08:48;29.30;36.10
7341;DHT22;6870;50.944;6.932;2023-09-12T13:11:17;29.00;36.00
7341;DHT22;6870;50.944;6.932;2023-09-12T13:13:47;28.90;35.80
7341;DHT22;6870;50.944;6.932;2023-09-12T13:16:16;29.20;36.10
7341;DHT22;6870;50.944;6.932;2023-09-12T13:18:44;28.90;35.90
7341;DHT22;6870;50.944;6.932;2023-09-12T13:21:12;28.70;35.70
7341;DHT22;6870;50.944;6.932;2023-09-12T13:23:42;29.00;36.00
7341;DHT22;6870;50.944;6.932;2023-09-12T13:26:11;28.70;35.80
7341;DHT22;6870;50.944;6.932;2023-09-12T13:28:39;28.90;36.00
7341;DHT22;6870;50.944;6.932;2023-09-12T13:31:07;29.20;36.30
7341;DHT22;6870;50.944;6.932;2023-09-12T13:33:35;28.90;36.10
7341;DHT22;6870;50.944;6.932;2023-09-12T13:36:04;29.00;36.20
7341;DHT22;6870;50.944;6.932;2023-09-12T13:38:32;29.00;36.10
7341;DHT22;6870;50.944;6.932;2023-09-12T13:41:01;29.10;36.10
7341;DHT22;6870;50.944;6.932;2023-09-12T13:43:30;28.90;35.80
7341;DHT22;6870;50.944;6.932;2023-09-12T13:45:58;28.90;35.80
7341;DHT22;6870;50.944;6.932;2023-09-12T13:48:26;29.10;36.00
7341;DHT22;6870;50.944;6.932;2023-09-12T13:50:54;29.00;36.70
7341;DHT22;6870;50.944;6.932;2023-09-12T13:53:22;29.00;37.20
7341;DHT22;6870;50.944;6.932;2023-09-12T13:55:50;29.00;36.80
7341;DHT22;6870;50.944;6.932;2023-09-12T13:58:36;28.90;37.00
7341;DHT22;6870;50.944;6.932;2023-09-12T14:01:13;28.70;38.70
7341;DHT22;6870;50.944;6.932;2023-09-12T14:03:59;28.80;38.50
7341;DHT22;6870;50.944;6.932;2023-09-12T14:06:27;29.00;38.30
7341;DHT22;6870;50.944;6.932;2023-09-12T14:08:56;28.90;39.20
7341;DHT22;6870;50.944;6.932;2023-09-12T14:11:25;28.80;39.30
7341;DHT22;6870;50.944;6.932;2023-09-12T14:14:03;28.90;39.40
7341;DHT22;6870;50.944;6.932;2023-09-12T14:16:34;28.80;38.80
7341;DHT22;6870;50.944;6.932;2023-09-12T14:19:03;28.90;39.40
7341;DHT22;6870;50.944;6.932;2023-09-12T14:21:32;29.00;39.50
7341;DHT22;6870;50.944;6.932;2023-09-12T14:24:01;29.00;39.50
7341;DHT22;6870;50.944;6.932;2023-09-12T14:26:31;28.90;39.40
7341;DHT22;6870;50.944;6.932;2023-09-12T14:29:00;28.70;38.30
7341;DHT22;6870;50.944;6.932;2023-09-12T14:31:30;28.70;39.20
7341;DHT22;6870;50.944;6.932;2023-09-12T14:33:58;29.10;39.50
7341;DHT22;6870;50.944;6.932;2023-09-12T14:36:26;29.00;39.50
7341;DHT22;6870;50.944;6.932;2023-09-12T14:38:54;28.80;39.30
7341;DHT22;6870;50.944;6.932;2023-09-12T14:41:22;28.80;39.40
7341;DHT22;6870;50.944;6.932;2023-09-12T14:43:50;28.70;38.50
7341;DHT22;6870;50.944;6.932;2023-09-12T14:46:18;28.90;39.40
7341;DHT22;6870;50.944;6.932;2023-09-12T14:48:48;28.90;38.10
7341;DHT22;6870;50.944;6.932;2023-09-12T14:51:28;29.00;38.60
7341;DHT22;6870;50.944;6.932;2023-09-12T14:54:00;28.60;38.10
7341;DHT22;6870;50.944;6.932;2023-09-12T14:56:29;28.90;37.90
7341;DHT22;6870;50.944;6.932;2023-09-12T14:58:57;29.10;37.80
7341;DHT22;6870;50.944;6.932;2023-09-12T15:01:26;28.70;37.30
7341;DHT22;6870;50.944;6.932;2023-09-12T15:03:56;28.90;37.20
7341;DHT22;6870;50.944;6.932;2023-09-12T15:06:24;29.10;37.40
7341;DHT22;6870;50.944;6.932;2023-09-12T15:08:52;28.80;37.20
7341;DHT22;6870;50.944;6.932;2023-09-12T15:11:20;29.00;37.70
7341;DHT22;6870;50.944;6.932;2023-09-12T15:13:48;28.80;37.40
7341;DHT22;6870;50.944;6.932;2023-09-12T15:16:17;29.00;36.70
7341;DHT22;6870;50.944;6.932;2023-09-12T15:18:45;28.90;37.00
7341;DHT22;6870;50.944;6.932;2023-09-12T15:21:15;29.00;37.20
7341;DHT22;6870;50.944;6.932;2023-09-12T15:23:43;29.00;36.90
7341;DHT22;6870;50.944;6.932;2023-09-12T15:26:12;28.90;36.50
7341;DHT22;6870;50.944;6.932;2023-09-12T15:28:40;28.80;37.20
7341;DHT22;6870;50.944;6.932;2023-09-12T15:31:08;28.80;36.80
7341;DHT22;6870;50.944;6.932;2023-09-12T15:33:36;28.90;36.70
7341;DHT22;6870;50.944;6.932;2023-09-12T15:36:04;29.00;37.20
7341;DHT22;6870;50.944;6.932;2023-09-12T15:41:31;29.10;37.10
7341;DHT22;6870;50.944;6.932;2023-09-12T15:43:59;28.70;36.70
7341;DHT22;6870;50.944;6.932;2023-09-12T15:46:30;28.90;37.10
7341;DHT22;6870;50.944;6.932;2023-09-12T15:49:02;28.90;37.00
7341;DHT22;6870;50.944;6.932;2023-09-12T15:51:31;28.70;36.90
7341;DHT22;6870;50.944;6.932;2023-09-12T15:54:00;28.90;37.00
7341;DHT22;6870;50.944;6.932;2023-09-12T15:56:28;29.10;37.20
7341;DHT22;6870;50.944;6.932;2023-09-12T15:58:57;28.80;36.90
7341;DHT22;6870;50.944;6.932;2023-09-12T16:01:25;28.60;37.00
7341;DHT22;6870;50.944;6.932;2023-09-12T16:03:53;28.60;36.80
7341;DHT22;6870;50.944;6.932;2023-09-12T16:06:22;28.80;36.90
7341;DHT22;6870;50.944;6.932;2023-09-12T16:08:50;28.90;37.00
7341;DHT22;6870;50.944;6.932;2023-09-12T16:11:18;28.70;36.90
7341;DHT22;6870;50.944;6.932;2023-09-12T16:13:46;28.70;36.90
7341;DHT22;6870;50.944;6.932;2023-09-12T16:16:20;28.60;36.90
7341;DHT22;6870;50.944;6.932;2023-09-12T16:18:48;28.70;36.90
7341;DHT22;6870;50.944;6.932;2023-09-12T16:21:16;28.70;37.00
7341;DHT22;6870;50.944;6.932;2023-09-12T16:23:44;28.50;36.80